sensor_id;sensor_type;location;lat;lon;timestamp;pressure;altitude;pressure_sealevel;temperature;humidity
6423;BME280;3244;42.708;23.288;2023-04-07T00:01:05;94776.72;;;4.70;53.90
6423;BME280;3244;42.708;23.288;2023-04-07T00:03:32;94776.03;;;4.64;54.37
6423;BME280;3244;42.708;23.288;2023-04-07T00:05:59;94771.69;;;4.70;53.98
6423;BME280;3244;42.708;23.288;2023-04-07T00:08:26;94770.00;;;4.72;53.94
6423;BME280;3244;42.708;23.288;2023-04-07T00:10:54;94774.97;;;4.77;53.68
6423;BME280;3244;42.708;23.288;2023-04-07T00:13:21;94770.91;;;4.70;54.10
6423;BME280;3244;42.708;23.288;2023-04-07T00:15:48;94770.78;;;4.76;53.44
6423;BME280;3244;42.708;23.288;2023-04-07T00:18:15;94774.97;;;4.75;53.23
6423;BME280;3244;42.708;23.288;2023-04-07T00:20:41;94764.69;;;4.91;53.10
6423;BME280;3244;42.708;23.288;2023-04-07T00:23:08;94772.22;;;4.91;53.30
6423;BME280;3244;42.708;23.288;2023-04-07T00:25:35;94763.03;;;4.90;52.78
6423;BME280;3244;42.708;23.288;2023-04-07T00:28:03;94772.41;;;4.80;53.15
6423;BME280;3244;42.708;23.288;2023-04-07T00:30:30;94766.47;;;4.83;53.32
6423;BME280;3244;42.708;23.288;2023-04-07T00:32:56;94772.28;;;4.88;52.93
6423;BME280;3244;42.708;23.288;2023-04-07T00:35:23;94772.31;;;4.85;53.19
6423;BME280;3244;42.708;23.288;2023-04-07T00:37:50;94768.09;;;4.87;52.55
6423;BME280;3244;42.708;23.288;2023-04-07T00:40:17;94769.78;;;4.86;52.82
6423;BME280;3244;42.708;23.288;2023-04-07T00:42:43;94770.59;;;4.88;52.89
6423;BME280;3244;42.708;23.288;2023-04-07T00:45:11;94772.34;;;4.83;53.06
6423;BME280;3244;42.708;23.288;2023-04-07T00:47:38;94766.41;;;4.89;52.83
6423;BME280;3244;42.708;23.288;2023-04-07T00:50:06;94771.44;;;4.89;52.17
6423;BME280;3244;42.708;23.288;2023-04-07T00:52:33;94763.19;;;4.77;52.65
6423;BME280;3244;42.708;23.288;2023-04-07T00:55:01;94764.06;;;4.76;52.56
6423;BME280;3244;42.708;23.288;2023-04-07T00:57:27;94768.19;;;4.81;52.18
6423;BME280;3244;42.708;23.288;2023-04-07T00:59:54;94760.69;;;4.77;52.09
6423;BME280;3244;42.708;23.288;2023-04-07T01:02:30;94766.88;;;4.58;52.50
6423;BME280;3244;42.708;23.288;2023-04-07T01:05:06;94760.66;;;4.79;52.27
6423;BME280;3244;42.708;23.288;2023-04-07T01:07:41;94760.22;;;4.54;52.76
6423;BME280;3244;42.708;23.288;2023-04-07T01:10:13;94759.13;;;4.70;52.36
6423;BME280;3244;42.708;23.288;2023-04-07T01:12:48;94751.47;;;4.76;51.94
6423;BME280;3244;42.708;23.288;2023-04-07T01:15:19;94753.94;;;4.79;51.62
6423;BME280;3244;42.708;23.288;2023-04-07T01:17:52;94752.38;;;4.72;51.99
6423;BME280;3244;42.708;23.288;2023-04-07T01:20:22;94754.88;;;4.72;52.29
6423;BME280;3244;42.708;23.288;2023-04-07T01:22:53;94750.53;;;4.82;52.59
6423;BME280;3244;42.708;23.288;2023-04-07T01:25:37;94758.88;;;4.86;51.78
6423;BME280;3244;42.708;23.288;2023-04-07T01:28:33;94752.91;;;4.91;51.56
6423;BME280;3244;42.708;23.288;2023-04-07T01:31:08;94747.25;;;4.78;51.96
6423;BME280;3244;42.708;23.288;2023-04-07T01:33:36;94747.97;;;4.87;51.89
6423;BME280;3244;42.708;23.288;2023-04-07T01:36:05;94745.16;;;5.03;51.97
6423;BME280;3244;42.708;23.288;2023-04-07T01:38:33;94749.19;;;5.12;50.96
6423;BME280;3244;42.708;23.288;2023-04-07T01:41:02;94742.44;;;5.14;51.06
6423;BME280;3244;42.708;23.288;2023-04-07T01:43:29;94739.19;;;5.09;51.44
6423;BME280;3244;42.708;23.288;2023-04-07T01:45:56;94745.03;;;5.11;52.46
6423;BME280;3244;42.708;23.288;2023-04-07T01:48:25;94744.94;;;5.16;53.29
6423;BME280;3244;42.708;23.288;2023-04-07T01:50:52;94745.03;;;5.11;53.67
6423;BME280;3244;42.708;23.288;2023-04-07T01:53:20;94737.63;;;5.02;54.27
6423;BME280;3244;42.708;23.288;2023-04-07T01:55:48;94744.72;;;4.78;55.37
6423;BME280;3244;42.708;23.288;2023-04-07T01:58:16;94732.19;;;4.75;56.00
6423;BME280;3244;42.708;23.288;2023-04-07T02:00:42;94742.31;;;4.71;56.38
6423;BME280;3244;42.708;23.288;2023-04-07T02:03:12;94734.13;;;4.60;56.52
6423;BME280;3244;42.708;23.288;2023-04-07T02:05:47;94737.47;;;4.62;57.22
6423;BME280;3244;42.708;23.288;2023-04-07T02:08:16;94731.59;;;4.61;57.09
6423;BME280;3244;42.708;23.288;2023-04-07T02:10:45;94731.72;;;4.52;57.32
6423;BME280;3244;42.708;23.288;2023-04-07T02:13:19;94733.47;;;4.47;57.43
6423;BME280;3244;42.708;23.288;2023-04-07T02:15:47;94733.25;;;4.62;56.95
6423;BME280;3244;42.708;23.288;2023-04-07T02:18:16;94730.56;;;4.71;56.89
6423;BME280;3244;42.708;23.288;2023-04-07T02:20:47;94730.47;;;4.77;57.12
6423;BME280;3244;42.708;23.288;2023-04-07T02:23:14;94730.41;;;4.82;56.85
6423;BME280;3244;42.708;23.288;2023-04-07T02:25:41;94732.81;;;4.90;56.84
6423;BME280;3244;42.708;23.288;2023-04-07T02:28:08;94733.34;;;5.05;55.11
6423;BME280;3244;42.708;23.288;2023-04-07T02:30:35;94737.28;;;5.20;55.21
6423;BME280;3244;42.708;23.288;2023-04-07T02:33:01;94737.91;;;5.33;55.51
6423;BME280;3244;42.708;23.288;2023-04-07T02:35:28;94733.16;;;5.18;55.87
6423;BME280;3244;42.708;23.288;2023-04-07T02:37:57;94738.19;;;5.18;56.32
6423;BME280;3244;42.708;23.288;2023-04-07T02:40:24;94734.94;;;5.11;56.92
6423;BME280;3244;42.708;23.288;2023-04-07T02:42:51;94742.59;;;5.05;56.99
6423;BME280;3244;42.708;23.288;2023-04-07T02:45:18;94741.25;;;4.86;57.71
6423;BME280;3244;42.708;23.288;2023-04-07T02:47:45;94750.59;;;4.79;58.16
6423;BME280;3244;42.708;23.288;2023-04-07T02:50:12;94740.41;;;4.87;57.84
6423;BME280;3244;42.708;23.288;2023-04-07T02:52:38;94743.66;;;4.93;57.48
6423;BME280;3244;42.708;23.288;2023-04-07T02:55:07;94738.63;;;4.93;57.51
6423;BME280;3244;42.708;23.288;2023-04-07T02:57:34;94739.72;;;4.77;57.77
6423;BME280;3244;42.708;23.288;2023-04-07T03:00:01;94749.66;;;4.85;57.53
6423;BME280;3244;42.708;23.288;2023-04-07T03:02:28;94742.69;;;4.99;57.36
6423;BME280;3244;42.708;23.288;2023-04-07T03:04:55;94742.69;;;4.99;57.23
6423;BME280;3244;42.708;23.288;2023-04-07T03:07:21;94745.88;;;5.10;56.78
6423;BME280;3244;42.708;23.288;2023-04-07T03:09:48;94745.78;;;5.16;56.33
6423;BME280;3244;42.708;23.288;2023-04-07T03:12:16;94749.72;;;5.29;56.26
6423;BME280;3244;42.708;23.288;2023-04-07T03:14:43;94742.94;;;5.33;56.26
6423;BME280;3244;42.708;23.288;2023-04-07T03:17:09;94737.91;;;5.33;56.86
6423;BME280;3244;42.708;23.288;2023-04-07T03:19:36;94743.94;;;5.24;56.54
6423;BME280;3244;42.708;23.288;2023-04-07T03:22:03;94740.75;;;5.16;56.46
6423;BME280;3244;42.708;23.288;2023-04-07T03:24:29;94736.88;;;4.95;56.67
6423;BME280;3244;42.708;23.288;2023-04-07T03:26:56;94737.63;;;5.02;55.15
6423;BME280;3244;42.708;23.288;2023-04-07T03:29:24;94724.94;;;5.06;54.18
6423;BME280;3244;42.708;23.288;2023-04-07T03:31:51;94730.75;;;5.10;52.25
6423;BME280;3244;42.708;23.288;2023-04-07T03:34:18;94735.06;;;5.03;51.26
6423;BME280;3244;42.708;23.288;2023-04-07T03:36:44;94730.22;;;4.94;51.25
6423;BME280;3244;42.708;23.288;2023-04-07T03:39:11;94736.84;;;4.98;51.51
6423;BME280;3244;42.708;23.288;2023-04-07T03:41:38;94736.72;;;5.04;51.86
6423;BME280;3244;42.708;23.288;2023-04-07T03:44:05;94739.91;;;5.16;51.55
6423;BME280;3244;42.708;23.288;2023-04-07T03:46:33;94743.09;;;5.24;50.82
6423;BME280;3244;42.708;23.288;2023-04-07T03:49:00;94750.63;;;5.25;50.76
6423;BME280;3244;42.708;23.288;2023-04-07T03:51:26;94751.22;;;5.39;49.94
6423;BME280;3244;42.708;23.288;2023-04-07T03:53:53;94746.09;;;5.44;49.97
6423;BME280;3244;42.708;23.288;2023-04-07T03:56:20;94751.06;;;5.47;50.17
6423;BME280;3244;42.708;23.288;2023-04-07T03:58:47;94746.00;;;5.48;50.34
6423;BME280;3244;42.708;23.288;2023-04-07T04:01:14;94751.06;;;5.47;50.50
6423;BME280;3244;42.708;23.288;2023-04-07T04:03:42;94746.41;;;5.70;49.45
6423;BME280;3244;42.708;23.288;2023-04-07T04:06:09;94758.19;;;5.70;49.00
6423;BME280;3244;42.708;23.288;2023-04-07T04:08:36;94750.38;;;5.82;49.13
6423;BME280;3244;42.708;23.288;2023-04-07T04:11:02;94762.53;;;5.63;49.86
6423;BME280;3244;42.708;23.288;2023-04-07T04:13:29;94759.56;;;5.86;49.59
6423;BME280;3244;42.708;23.288;2023-04-07T04:15:56;94756.81;;;5.97;48.94
6423;BME280;3244;42.708;23.288;2023-04-07T04:18:23;94760.69;;;6.14;48.68
6423;BME280;3244;42.708;23.288;2023-04-07T04:20:51;94765.72;;;6.14;50.77
6423;BME280;3244;42.708;23.288;2023-04-07T04:23:18;94760.00;;;6.06;51.85
6423;BME280;3244;42.708;23.288;2023-04-07T04:25:44;94766.72;;;5.64;53.65
6423;BME280;3244;42.708;23.288;2023-04-07T04:28:11;94770.69;;;5.31;54.80
6423;BME280;3244;42.708;23.288;2023-04-07T04:30:38;94780.72;;;5.34;55.41
6423;BME280;3244;42.708;23.288;2023-04-07T04:33:05;94780.34;;;5.08;55.89
6423;BME280;3244;42.708;23.288;2023-04-07T04:35:33;94784.44;;;5.13;56.31
6423;BME280;3244;42.708;23.288;2023-04-07T04:38:01;94779.97;;;5.28;56.05
6423;BME280;3244;42.708;23.288;2023-04-07T04:40:28;94781.50;;;5.36;56.60
6423;BME280;3244;42.708;23.288;2023-04-07T04:42:54;94785.00;;;5.29;56.56
6423;BME280;3244;42.708;23.288;2023-04-07T04:45:21;94787.50;;;5.31;56.87
6423;BME280;3244;42.708;23.288;2023-04-07T04:47:48;94795.94;;;5.28;56.80
6423;BME280;3244;42.708;23.288;2023-04-07T04:50:15;94787.47;;;5.32;56.95
6423;BME280;3244;42.708;23.288;2023-04-07T04:52:41;94784.03;;;5.36;56.80
6423;BME280;3244;42.708;23.288;2023-04-07T04:55:10;94790.78;;;5.34;56.69
6423;BME280;3244;42.708;23.288;2023-04-07T04:57:37;94796.41;;;5.48;56.87
6423;BME280;3244;42.708;23.288;2023-04-07T05:00:07;94792.03;;;5.58;57.05
6423;BME280;3244;42.708;23.288;2023-04-07T05:02:34;94794.25;;;5.73;56.93
6423;BME280;3244;42.708;23.288;2023-04-07T05:05:01;94800.69;;;5.91;56.65
6423;BME280;3244;42.708;23.288;2023-04-07T05:07:28;94797.94;;;6.00;56.02
6423;BME280;3244;42.708;23.288;2023-04-07T05:09:55;94801.00;;;6.16;54.65
6423;BME280;3244;42.708;23.288;2023-04-07T05:12:23;94801.88;;;6.54;54.48
6423;BME280;3244;42.708;23.288;2023-04-07T05:14:50;94805.69;;;6.70;53.19
6423;BME280;3244;42.708;23.288;2023-04-07T05:17:17;94807.72;;;6.93;53.71
6423;BME280;3244;42.708;23.288;2023-04-07T05:19:43;94812.00;;;7.23;53.09
6423;BME280;3244;42.708;23.288;2023-04-07T05:22:10;94804.97;;;7.02;51.75
6423;BME280;3244;42.708;23.288;2023-04-07T05:24:37;94813.31;;;6.68;53.48
6423;BME280;3244;42.708;23.288;2023-04-07T05:27:03;94818.22;;;6.74;54.24
6423;BME280;3244;42.708;23.288;2023-04-07T05:29:31;94812.91;;;6.87;53.21
6423;BME280;3244;42.708;23.288;2023-04-07T05:31:58;94814.00;;;6.75;53.15
6423;BME280;3244;42.708;23.288;2023-04-07T05:34:26;94811.19;;;6.89;53.59
6423;BME280;3244;42.708;23.288;2023-04-07T05:36:52;94811.47;;;7.12;52.84
6423;BME280;3244;42.708;23.288;2023-04-07T05:39:19;94816.25;;;7.23;53.41
6423;BME280;3244;42.708;23.288;2023-04-07T05:41:46;94805.75;;;7.38;51.68
6423;BME280;3244;42.708;23.288;2023-04-07T05:44:13;94814.72;;;7.49;51.35
6423;BME280;3244;42.708;23.288;2023-04-07T05:46:41;94810.53;;;7.16;51.43
6423;BME280;3244;42.708;23.288;2023-04-07T05:49:07;94811.25;;;6.86;52.33
6423;BME280;3244;42.708;23.288;2023-04-07T05:51:34;94820.25;;;6.96;53.88
6423;BME280;3244;42.708;23.288;2023-04-07T05:54:01;94807.91;;;7.19;52.56
6423;BME280;3244;42.708;23.288;2023-04-07T05:56:28;94812.00;;;7.23;52.40
6423;BME280;3244;42.708;23.288;2023-04-07T05:58:55;94808.25;;;7.39;51.26
6423;BME280;3244;42.708;23.288;2023-04-07T06:01:23;94810.59;;;7.78;50.20
6423;BME280;3244;42.708;23.288;2023-04-07T06:03:51;94804.41;;;7.90;49.24
6423;BME280;3244;42.708;23.288;2023-04-07T06:06:18;94808.91;;;8.09;50.21
6423;BME280;3244;42.708;23.288;2023-04-07T06:08:45;94812.03;;;8.76;48.99
6423;BME280;3244;42.708;23.288;2023-04-07T06:11:12;94800.16;;;10.51;44.55
6423;BME280;3244;42.708;23.288;2023-04-07T06:13:38;94794.66;;;11.47;42.52
6423;BME280;3244;42.708;23.288;2023-04-07T06:16:05;94803.81;;;12.12;40.73
6423;BME280;3244;42.708;23.288;2023-04-07T06:18:32;94793.53;;;12.70;39.37
6423;BME280;3244;42.708;23.288;2023-04-07T06:21:00;94802.88;;;13.93;37.28
6423;BME280;3244;42.708;23.288;2023-04-07T06:23:27;94784.88;;;15.08;34.80
6423;BME280;3244;42.708;23.288;2023-04-07T06:25:54;94785.84;;;15.81;33.21
6423;BME280;3244;42.708;23.288;2023-04-07T06:28:21;94790.25;;;15.63;32.92
6423;BME280;3244;42.708;23.288;2023-04-07T06:30:47;94784.66;;;16.58;32.36
6423;BME280;3244;42.708;23.288;2023-04-07T06:33:14;94781.47;;;19.24;29.14
6423;BME280;3244;42.708;23.288;2023-04-07T06:35:41;94769.78;;;22.98;23.79
6423;BME280;3244;42.708;23.288;2023-04-07T06:38:09;94763.28;;;26.60;20.05
6423;BME280;3244;42.708;23.288;2023-04-07T06:40:36;94761.41;;;28.98;17.72
6423;BME280;3244;42.708;23.288;2023-04-07T06:43:03;94755.25;;;30.13;16.82
6423;BME280;3244;42.708;23.288;2023-04-07T06:45:30;94752.22;;;30.54;15.83
6423;BME280;3244;42.708;23.288;2023-04-07T06:47:57;94756.50;;;29.26;15.72
6423;BME280;3244;42.708;23.288;2023-04-07T06:50:24;94759.00;;;26.93;16.00
6423;BME280;3244;42.708;23.288;2023-04-07T06:52:50;94760.69;;;24.37;18.13
6423;BME280;3244;42.708;23.288;2023-04-07T06:55:18;94771.38;;;22.50;20.18
6423;BME280;3244;42.708;23.288;2023-04-07T06:57:45;94766.47;;;20.88;20.83
6423;BME280;3244;42.708;23.288;2023-04-07T07:00:12;94774.19;;;19.18;22.36
6423;BME280;3244;42.708;23.288;2023-04-07T07:02:39;94783.69;;;18.06;24.15
6423;BME280;3244;42.708;23.288;2023-04-07T07:05:06;94788.50;;;17.58;24.69
6423;BME280;3244;42.708;23.288;2023-04-07T07:07:33;94779.13;;;18.10;24.70
6423;BME280;3244;42.708;23.288;2023-04-07T07:10:00;94782.84;;;18.31;23.92
6423;BME280;3244;42.708;23.288;2023-04-07T07:12:28;94788.41;;;17.47;24.57
6423;BME280;3244;42.708;23.288;2023-04-07T07:14:55;94789.03;;;16.42;25.81
6423;BME280;3244;42.708;23.288;2023-04-07T07:17:21;94792.69;;;15.51;26.95
6423;BME280;3244;42.708;23.288;2023-04-07T07:19:48;94793.78;;;14.85;27.82
6423;BME280;3244;42.708;23.288;2023-04-07T07:22:15;94795.06;;;14.29;28.78
6423;BME280;3244;42.708;23.288;2023-04-07T07:24:41;94805.50;;;13.92;29.87
6423;BME280;3244;42.708;23.288;2023-04-07T07:27:08;94816.03;;;13.69;30.31
6423;BME280;3244;42.708;23.288;2023-04-07T07:29:36;94813.44;;;13.36;30.23
6423;BME280;3244;42.708;23.288;2023-04-07T07:32:03;94817.94;;;13.12;31.17
6423;BME280;3244;42.708;23.288;2023-04-07T07:34:30;94818.22;;;13.06;31.57
6423;BME280;3244;42.708;23.288;2023-04-07T07:36:57;94814.22;;;13.19;30.42
6423;BME280;3244;42.708;23.288;2023-04-07T07:39:24;94820.28;;;13.35;30.68
6423;BME280;3244;42.708;23.288;2023-04-07T07:41:51;94824.75;;;13.47;30.69
6423;BME280;3244;42.708;23.288;2023-04-07T07:44:18;94815.72;;;13.92;29.35
6423;BME280;3244;42.708;23.288;2023-04-07T07:46:47;94823.59;;;14.38;28.91
6423;BME280;3244;42.708;23.288;2023-04-07T07:49:13;94808.63;;;14.47;28.65
6423;BME280;3244;42.708;23.288;2023-04-07T07:51:40;94806.66;;;15.00;27.83
6423;BME280;3244;42.708;23.288;2023-04-07T07:54:07;94812.41;;;15.19;27.55
6423;BME280;3244;42.708;23.288;2023-04-07T07:56:34;94807.84;;;14.78;28.27
6423;BME280;3244;42.708;23.288;2023-04-07T07:59:01;94822.91;;;14.67;28.13
6423;BME280;3244;42.708;23.288;2023-04-07T08:01:27;94811.13;;;14.49;28.79
6423;BME280;3244;42.708;23.288;2023-04-07T08:03:55;94817.91;;;14.33;29.50
6423;BME280;3244;42.708;23.288;2023-04-07T08:06:22;94812.75;;;14.17;29.43
6423;BME280;3244;42.708;23.288;2023-04-07T08:08:49;94821.53;;;14.11;29.35
6423;BME280;3244;42.708;23.288;2023-04-07T08:11:16;94822.72;;;14.06;29.50
6423;BME280;3244;42.708;23.288;2023-04-07T08:13:42;94820.25;;;13.70;29.69
6423;BME280;3244;42.708;23.288;2023-04-07T08:16:10;94825.28;;;14.21;29.09
6423;BME280;3244;42.708;23.288;2023-04-07T08:18:37;94815.56;;;15.08;28.12
6423;BME280;3244;42.708;23.288;2023-04-07T08:21:06;94817.59;;;15.33;27.56
6423;BME280;3244;42.708;23.288;2023-04-07T08:23:32;94811.44;;;15.06;27.79
6423;BME280;3244;42.708;23.288;2023-04-07T08:25:59;94817.88;;;14.97;27.93
6423;BME280;3244;42.708;23.288;2023-04-07T08:28:26;94817.00;;;14.82;28.69
6423;BME280;3244;42.708;23.288;2023-04-07T08:30:53;94818.38;;;14.72;28.73
6423;BME280;3244;42.708;23.288;2023-04-07T08:33:19;94823.66;;;14.69;28.62
6423;BME280;3244;42.708;23.288;2023-04-07T08:35:46;94817.69;;;15.16;28.14
6423;BME280;3244;42.708;23.288;2023-04-07T08:38:14;94814.97;;;16.80;25.86
6423;BME280;3244;42.708;23.288;2023-04-07T08:40:41;94806.97;;;18.79;23.74
6423;BME280;3244;42.708;23.288;2023-04-07T08:43:09;94802.22;;;20.50;21.83
6423;BME280;3244;42.708;23.288;2023-04-07T08:45:38;94804.91;;;21.89;20.92
6423;BME280;3244;42.708;23.288;2023-04-07T08:48:15;94803.88;;;22.12;20.26
6423;BME280;3244;42.708;23.288;2023-04-07T08:50:45;94809.47;;;20.67;21.08
6423;BME280;3244;42.708;23.288;2023-04-07T08:53:13;94807.66;;;19.42;22.47
6423;BME280;3244;42.708;23.288;2023-04-07T08:55:43;94810.19;;;18.45;23.29
6423;BME280;3244;42.708;23.288;2023-04-07T08:58:10;94814.91;;;17.48;24.47
6423;BME280;3244;42.708;23.288;2023-04-07T09:00:39;94819.78;;;18.17;24.20
6423;BME280;3244;42.708;23.288;2023-04-07T09:03:07;94812.47;;;18.98;23.64
6423;BME280;3244;42.708;23.288;2023-04-07T09:05:35;94810.66;;;18.88;22.99
6423;BME280;3244;42.708;23.288;2023-04-07T09:08:02;94821.41;;;17.93;24.24
6423;BME280;3244;42.708;23.288;2023-04-07T09:10:30;94817.25;;;17.11;24.82
6423;BME280;3244;42.708;23.288;2023-04-07T09:12:57;94815.78;;;16.52;25.41
6423;BME280;3244;42.708;23.288;2023-04-07T09:15:27;94818.25;;;17.09;25.40
6423;BME280;3244;42.708;23.288;2023-04-07T09:17:56;94812.97;;;18.42;23.75
6423;BME280;3244;42.708;23.288;2023-04-07T09:20:22;94803.25;;;19.31;22.65
6423;BME280;3244;42.708;23.288;2023-04-07T09:22:49;94816.22;;;18.82;23.51
6423;BME280;3244;42.708;23.288;2023-04-07T09:25:18;94820.25;;;17.45;24.11
6423;BME280;3244;42.708;23.288;2023-04-07T09:27:56;94826.47;;;16.87;24.92
6423;BME280;3244;42.708;23.288;2023-04-07T09:30:23;94808.69;;;16.84;24.85
6423;BME280;3244;42.708;23.288;2023-04-07T09:32:49;94822.81;;;16.62;25.38
6423;BME280;3244;42.708;23.288;2023-04-07T09:35:16;94820.94;;;16.23;26.24
6423;BME280;3244;42.708;23.288;2023-04-07T09:37:43;94819.97;;;15.82;26.68
6423;BME280;3244;42.708;23.288;2023-04-07T09:40:10;94827.72;;;15.35;27.54
6423;BME280;3244;42.708;23.288;2023-04-07T09:42:44;94821.03;;;15.02;28.41
6423;BME280;3244;42.708;23.288;2023-04-07T09:45:12;94832.25;;;14.68;28.29
6423;BME280;3244;42.708;23.288;2023-04-07T09:47:49;94838.50;;;14.29;28.64
6423;BME280;3244;42.708;23.288;2023-04-07T09:50:23;94845.09;;;14.01;29.11
6423;BME280;3244;42.708;23.288;2023-04-07T09:52:56;94835.00;;;13.82;29.99
6423;BME280;3244;42.708;23.288;2023-04-07T09:55:23;94837.00;;;13.75;29.85
6423;BME280;3244;42.708;23.288;2023-04-07T09:57:50;94838.78;;;13.90;29.96
6423;BME280;3244;42.708;23.288;2023-04-07T10:00:18;94839.41;;;14.28;29.79
6423;BME280;3244;42.708;23.288;2023-04-07T10:02:45;94838.34;;;14.50;29.70
6423;BME280;3244;42.708;23.288;2023-04-07T10:05:13;94836.69;;;14.64;29.31
6423;BME280;3244;42.708;23.288;2023-04-07T10:07:40;94839.34;;;14.94;29.12
6423;BME280;3244;42.708;23.288;2023-04-07T10:10:09;94836.03;;;15.24;28.91
6423;BME280;3244;42.708;23.288;2023-04-07T10:12:37;94825.66;;;15.41;28.83
6423;BME280;3244;42.708;23.288;2023-04-07T10:15:06;94830.50;;;15.61;28.24
6423;BME280;3244;42.708;23.288;2023-04-07T10:17:35;94828.69;;;15.63;28.75
6423;BME280;3244;42.708;23.288;2023-04-07T10:20:03;94827.06;;;15.47;28.56
6423;BME280;3244;42.708;23.288;2023-04-07T10:22:32;94835.13;;;15.25;29.07
6423;BME280;3244;42.708;23.288;2023-04-07T10:25:05;94840.56;;;14.87;29.01
6423;BME280;3244;42.708;23.288;2023-04-07T10:27:37;94829.59;;;14.70;28.92
6423;BME280;3244;42.708;23.288;2023-04-07T10:30:11;94836.91;;;14.44;30.43
6423;BME280;3244;42.708;23.288;2023-04-07T10:32:48;94842.19;;;14.24;31.11
6423;BME280;3244;42.708;23.288;2023-04-07T10:35:15;94843.84;;;14.25;31.00
6423;BME280;3244;42.708;23.288;2023-04-07T10:38:08;94844.00;;;14.22;31.09
6423;BME280;3244;42.708;23.288;2023-04-07T10:40:38;94845.28;;;14.13;31.31
6423;BME280;3244;42.708;23.288;2023-04-07T10:43:06;94852.47;;;14.07;31.52
6423;BME280;3244;42.708;23.288;2023-04-07T10:45:54;94853.22;;;14.09;31.54
6423;BME280;3244;42.708;23.288;2023-04-07T10:48:28;94859.97;;;14.10;31.67
6423;BME280;3244;42.708;23.288;2023-04-07T10:51:16;94845.25;;;14.48;31.76
6423;BME280;3244;42.708;23.288;2023-04-07T10:57:04;94847.13;;;15.09;30.45
6423;BME280;3244;42.708;23.288;2023-04-07T10:59:32;94847.50;;;15.17;30.69
6423;BME280;3244;42.708;23.288;2023-04-07T11:02:33;94843.94;;;15.19;31.24
6423;BME280;3244;42.708;23.288;2023-04-07T11:05:01;94851.72;;;15.18;30.80
6423;BME280;3244;42.708;23.288;2023-04-07T11:07:50;94858.06;;;15.11;31.35
6423;BME280;3244;42.708;23.288;2023-04-07T11:10:19;94852.88;;;14.81;31.17
6423;BME280;3244;42.708;23.288;2023-04-07T11:13:04;94853.38;;;14.87;31.10
6423;BME280;3244;42.708;23.288;2023-04-07T11:15:32;94856.59;;;14.75;31.40
6423;BME280;3244;42.708;23.288;2023-04-07T11:18:12;94854.66;;;14.63;32.23
6423;BME280;3244;42.708;23.288;2023-04-07T11:20:42;94851.88;;;14.35;32.30
6423;BME280;3244;42.708;23.288;2023-04-07T11:23:10;94862.41;;;14.28;33.01
6423;BME280;3244;42.708;23.288;2023-04-07T11:25:37;94859.97;;;14.10;32.97
6423;BME280;3244;42.708;23.288;2023-04-07T11:28:04;94860.22;;;14.05;33.39
6423;BME280;3244;42.708;23.288;2023-04-07T11:30:31;94860.63;;;14.13;33.29
6423;BME280;3244;42.708;23.288;2023-04-07T11:32:58;94864.91;;;14.13;32.68
6423;BME280;3244;42.708;23.288;2023-04-07T11:35:24;94869.34;;;14.26;32.73
6423;BME280;3244;42.708;23.288;2023-04-07T11:37:58;94863.91;;;14.50;32.66
6423;BME280;3244;42.708;23.288;2023-04-07T11:40:32;94864.75;;;14.66;31.83
6423;BME280;3244;42.708;23.288;2023-04-07T11:43:00;94866.31;;;14.69;32.11
6423;BME280;3244;42.708;23.288;2023-04-07T11:45:27;94866.41;;;14.67;33.19
6423;BME280;3244;42.708;23.288;2023-04-07T11:47:54;94857.91;;;14.67;33.15
6423;BME280;3244;42.708;23.288;2023-04-07T11:50:39;94859.63;;;14.50;33.14
6423;BME280;3244;42.708;23.288;2023-04-07T11:53:07;94866.97;;;14.06;33.90
6423;BME280;3244;42.708;23.288;2023-04-07T11:55:34;94855.28;;;13.85;34.35
6423;BME280;3244;42.708;23.288;2023-04-07T11:58:05;94861.09;;;14.04;34.20
6423;BME280;3244;42.708;23.288;2023-04-07T12:00:34;94856.59;;;14.09;33.58
6423;BME280;3244;42.708;23.288;2023-04-07T12:03:10;94861.34;;;14.00;33.53
6423;BME280;3244;42.708;23.288;2023-04-07T12:05:42;94856.72;;;14.23;33.40
6423;BME280;3244;42.708;23.288;2023-04-07T12:08:11;94864.16;;;14.28;33.57
6423;BME280;3244;42.708;23.288;2023-04-07T12:10:38;94857.00;;;14.17;33.45
6423;BME280;3244;42.708;23.288;2023-04-07T12:13:06;94847.72;;;13.99;33.85
6423;BME280;3244;42.708;23.288;2023-04-07T12:15:33;94852.25;;;13.77;34.47
6423;BME280;3244;42.708;23.288;2023-04-07T12:18:01;94854.13;;;13.73;34.65
6423;BME280;3244;42.708;23.288;2023-04-07T12:20:28;94858.41;;;13.90;34.58
6423;BME280;3244;42.708;23.288;2023-04-07T12:22:55;94853.66;;;14.00;34.92
6423;BME280;3244;42.708;23.288;2023-04-07T12:25:25;94856.28;;;13.98;34.61
6423;BME280;3244;42.708;23.288;2023-04-07T12:27:51;94861.25;;;14.01;34.40
6423;BME280;3244;42.708;23.288;2023-04-07T12:30:18;94858.16;;;14.12;34.50
6423;BME280;3244;42.708;23.288;2023-04-07T12:32:45;94852.88;;;14.15;34.18
6423;BME280;3244;42.708;23.288;2023-04-07T12:35:12;94866.53;;;13.98;33.69
6423;BME280;3244;42.708;23.288;2023-04-07T12:37:39;94854.88;;;13.75;33.95
6423;BME280;3244;42.708;23.288;2023-04-07T12:40:06;94854.66;;;13.62;34.42
6423;BME280;3244;42.708;23.288;2023-04-07T12:42:35;94856.53;;;13.59;34.34
6423;BME280;3244;42.708;23.288;2023-04-07T12:45:02;94840.63;;;13.54;34.74
6423;BME280;3244;42.708;23.288;2023-04-07T12:47:28;94859.28;;;13.37;35.15
6423;BME280;3244;42.708;23.288;2023-04-07T12:49:56;94853.66;;;13.31;35.27
6423;BME280;3244;42.708;23.288;2023-04-07T12:52:23;94856.00;;;13.35;35.75
6423;BME280;3244;42.708;23.288;2023-04-07T12:54:50;94852.00;;;13.30;35.22
6423;BME280;3244;42.708;23.288;2023-04-07T12:57:17;94862.44;;;13.42;35.46
6423;BME280;3244;42.708;23.288;2023-04-07T12:59:45;94855.09;;;13.53;35.48
6423;BME280;3244;42.708;23.288;2023-04-07T13:02:12;94862.00;;;13.34;35.55
6423;BME280;3244;42.708;23.288;2023-04-07T13:04:39;94865.19;;;13.20;35.78
6423;BME280;3244;42.708;23.288;2023-04-07T13:07:07;94848.72;;;13.09;36.03
6423;BME280;3244;42.708;23.288;2023-04-07T13:09:34;94866.50;;;13.10;35.95
6423;BME280;3244;42.708;23.288;2023-04-07T13:12:01;94859.34;;;13.00;36.22
6423;BME280;3244;42.708;23.288;2023-04-07T13:14:28;94868.00;;;12.95;36.47
6423;BME280;3244;42.708;23.288;2023-04-07T13:16:56;94855.47;;;13.10;36.64
6423;BME280;3244;42.708;23.288;2023-04-07T13:19:23;94868.16;;;13.30;36.45
6423;BME280;3244;42.708;23.288;2023-04-07T13:21:49;94872.13;;;13.36;36.10
6423;BME280;3244;42.708;23.288;2023-04-07T13:24:16;94867.09;;;13.34;35.90